Time;durP1;ratioP1;P1;durP2;ratioP2;P2;SDS_P1;SDS_P2;PMS_P1;PMS_P2;Temp;Humidity;BMP_temperature;BMP_pressure;BME280_temperature;BME280_humidity;BME280_pressure;Samples;Min_cycle;Max_cycle;Signal;HPM_P1;HPM_P2
2021/01/03 14:22:33;;;;;;;;;;;;;;;-0.49;100.00;92994.50;4997974;27;1555861;-74
2021/01/03 14:25:02;;;;;;;;;;;;;;;-0.48;100.00;92993.53;5081814;28;19978;-73
2021/01/03 14:44:56;;;;;;;8.67;2.80;;;;;;;21.01;51.15;92953.44;5076383;27;20457;-54
2021/01/03 14:47:33;;;;;;;11.65;2.22;;;;;;;21.41;48.02;92954.72;5078573;28;20703;-55
2021/01/03 14:50:13;;;;;;;22.10;2.83;;;;;;;21.60;46.73;92960.06;5077459;28;20251;-57
2021/01/03 14:52:59;;;;;;;19.30;2.90;;;;;;;21.61;45.76;92960.84;5073309;28;20758;-56
2021/01/03 18:09:32;;;;;;;7.28;2.40;;;;;;;20.91;52.19;97804.66;5109757;27;20561;-73
2021/01/03 18:11:58;;;;;;;15.40;2.22;;;;;;;20.88;50.19;97805.81;5105411;28;20233;-70
2021/01/03 18:14:25;;;;;;;8.45;1.95;;;;;;;20.86;52.21;97805.16;5106813;28;20207;-75
2021/01/03 18:16:52;;;;;;;6.38;2.28;;;;;;;20.77;52.15;97801.66;5084282;22;20227;-72
2021/01/03 18:19:19;;;;;;;8.02;2.72;;;;;;;20.74;51.71;97804.66;5067461;28;20233;-69
2021/01/03 18:21:45;;;;;;;7.57;2.67;;;;;;;20.72;51.10;97809.31;5066361;28;20305;-74
2021/01/03 18:24:12;;;;;;;6.38;2.22;;;;;;;20.74;52.00;97811.78;5065774;28;20202;-71
2021/01/03 18:26:41;;;;;;;7.00;2.65;;;;;;;20.75;51.85;97810.78;5067059;28;20237;-73
2021/01/03 18:29:09;;;;;;;5.72;1.92;;;;;;;20.83;51.32;97810.78;5066764;28;20321;-70
2021/01/03 18:31:40;;;;;;;7.60;1.83;;;;;;;20.88;52.11;97803.16;4895371;22;99568;-72
2021/01/03 18:34:07;;;;;;;6.75;2.17;;;;;;;21.00;52.53;97806.31;5025449;28;20204;-71
2021/01/03 18:36:33;;;;;;;7.88;2.80;;;;;;;21.01;49.02;97819.44;5026168;28;20243;-74
2021/01/03 18:38:59;;;;;;;16.00;2.92;;;;;;;21.02;50.13;97813.13;5025494;28;20251;-71
2021/01/03 18:41:25;;;;;;;4.80;2.50;;;;;;;21.03;49.81;97814.81;5025810;28;20271;-71
2021/01/03 18:43:52;;;;;;;10.30;2.67;;;;;;;21.14;49.98;97813.63;5026192;28;20239;-69
2021/01/03 18:46:19;;;;;;;12.80;2.40;;;;;;;21.16;50.84;97814.28;5026462;28;20295;-69
2021/01/03 18:48:47;;;;;;;7.43;2.95;;;;;;;21.14;50.37;97820.78;5025261;28;20262;-70
2021/01/03 18:51:13;;;;;;;14.73;2.65;;;;;;;21.17;48.65;97821.25;5026467;28;20555;-70
2021/01/03 18:53:40;;;;;;;7.72;2.83;;;;;;;21.22;50.48;97826.09;5026110;28;20240;-71
2021/01/03 18:56:06;;;;;;;9.48;2.58;;;;;;;21.19;51.65;97823.75;5025635;28;20319;-71
2021/01/03 18:58:33;;;;;;;3.72;2.00;;;;;;;21.16;50.45;97826.75;5025610;28;20644;-70
2021/01/03 19:01:00;;;;;;;7.53;2.08;;;;;;;21.16;52.13;97821.44;5025027;28;20212;-69
2021/01/03 19:03:26;;;;;;;9.02;1.90;;;;;;;21.18;50.27;97830.06;5025433;28;20261;-68
2021/01/03 19:05:53;;;;;;;6.28;2.05;;;;;;;21.21;51.30;97824.41;5025359;28;20235;-69
2021/01/03 19:08:19;;;;;;;5.97;2.13;;;;;;;21.20;52.02;97834.22;5025117;28;20228;-69
2021/01/03 19:10:46;;;;;;;9.55;1.85;;;;;;;21.29;51.65;97840.38;5025179;28;20227;-68
2021/01/03 19:13:12;;;;;;;6.00;1.77;;;;;;;21.34;51.36;97839.88;5024598;28;20321;-68
2021/01/03 19:15:38;;;;;;;6.25;2.05;;;;;;;21.35;51.15;97837.03;5026149;28;20291;-68
2021/01/03 19:18:06;;;;;;;5.30;2.13;;;;;;;21.30;50.68;97834.06;5024153;28;20204;-69
2021/01/03 19:20:32;;;;;;;9.98;2.20;;;;;;;21.35;50.83;97844.16;5015128;28;20216;-69
2021/01/03 19:22:58;;;;;;;7.32;1.80;;;;;;;21.43;51.85;97838.84;5012153;28;20296;-70
2021/01/03 19:25:24;;;;;;;4.63;2.17;;;;;;;21.41;50.91;97844.31;5011870;28;20223;-68
2021/01/03 19:27:50;;;;;;;3.45;1.88;;;;;;;21.48;51.11;97844.50;5009661;28;20247;-68
2021/01/03 19:30:17;;;;;;;9.10;1.60;;;;;;;22.91;48.37;97855.13;5011687;28;20434;-70
2021/01/03 19:32:44;;;;;;;7.57;1.73;;;;;;;23.88;46.18;97850.13;5011467;28;20523;-71
2021/01/03 19:35:12;;;;;;;5.75;1.52;;;;;;;24.16;45.09;97843.13;5011877;28;20240;-71
2021/01/03 19:37:38;;;;;;;5.07;1.55;;;;;;;24.26;45.72;97848.16;5012861;28;20303;-74
2021/01/03 19:40:07;;;;;;;15.52;1.83;;;;;;;24.58;45.24;97843.47;5010091;28;20256;-72
2021/01/03 19:42:33;;;;;;;9.23;1.80;;;;;;;24.94;45.12;97845.25;5009305;28;20439;-69
2021/01/03 19:45:00;;;;;;;6.82;1.52;;;;;;;24.92;44.15;97845.44;5011339;28;20303;-68
2021/01/03 19:47:29;;;;;;;5.15;1.40;;;;;;;24.93;44.10;97854.28;5013189;28;20240;-70
2021/01/03 19:49:55;;;;;;;7.70;1.40;;;;;;;24.98;44.41;97854.56;5012290;28;20224;-68
2021/01/03 19:52:23;;;;;;;3.13;1.42;;;;;;;25.06;44.06;97851.75;5010466;28;20263;-70
2021/01/03 19:54:49;;;;;;;9.00;1.70;;;;;;;25.05;44.61;97858.13;5012232;28;20694;-71
2021/01/03 19:57:15;;;;;;;4.05;1.65;;;;;;;25.10;43.99;97854.88;5012268;28;20295;-70
2021/01/03 19:59:41;;;;;;;5.60;1.50;;;;;;;25.15;43.90;97854.28;5012108;28;20243;-69
2021/01/03 20:02:09;;;;;;;4.10;1.40;;;;;;;25.08;43.15;97860.41;5011474;28;20205;-70
2021/01/03 20:04:36;;;;;;;3.08;1.60;;;;;;;24.95;44.32;97857.63;5009604;28;20300;-70
2021/01/03 20:07:02;;;;;;;4.57;2.10;;;;;;;24.64;43.75;97857.91;5009980;28;20197;-69
2021/01/03 20:09:29;;;;;;;3.22;1.55;;;;;;;24.58;44.45;97859.50;5010455;28;20719;-69
2021/01/03 20:11:59;;;;;;;5.95;1.75;;;;;;;24.52;44.07;97854.84;5010686;28;20201;-69
2021/01/03 20:14:26;;;;;;;4.78;1.75;;;;;;;24.49;44.01;97861.41;5010848;28;20204;-70
2021/01/03 20:16:53;;;;;;;4.28;1.33;;;;;;;24.49;44.91;97858.72;5011399;28;20196;-70
2021/01/03 20:19:21;;;;;;;4.30;1.05;;;;;;;24.39;44.57;97863.53;5010641;28;20221;-70
2021/01/03 20:21:49;;;;;;;6.18;1.65;;;;;;;24.39;44.66;97867.03;5010570;28;20205;-70
2021/01/03 20:24:16;;;;;;;2.95;1.00;;;;;;;24.37;45.26;97873.59;5010892;28;20209;-70
2021/01/03 20:26:48;;;;;;;2.50;1.35;;;;;;;24.33;45.36;97872.28;5010825;28;20279;-70
2021/01/03 20:29:14;;;;;;;1.75;1.10;;;;;;;24.25;45.22;97867.91;5009813;28;20753;-69
2021/01/03 20:31:41;;;;;;;2.78;1.20;;;;;;;24.17;45.24;97865.31;5009427;28;20213;-69
2021/01/03 20:34:07;;;;;;;5.20;1.73;;;;;;;24.13;45.11;97870.22;5011099;28;20663;-69
2021/01/03 20:36:33;;;;;;;2.35;1.50;;;;;;;24.10;45.69;97869.72;5010138;28;20720;-69
2021/01/03 20:38:59;;;;;;;2.92;1.50;;;;;;;23.98;45.20;97875.56;5015904;28;20224;-70
2021/01/03 20:41:25;;;;;;;4.07;1.42;;;;;;;23.90;46.21;97872.13;5014253;28;20208;-69
2021/01/03 20:43:52;;;;;;;2.58;1.35;;;;;;;23.81;46.69;97880.22;5010955;28;20342;-69
2021/01/03 20:46:21;;;;;;;5.70;1.90;;;;;;;23.75;46.52;97872.09;5010536;28;20205;-70
2021/01/03 20:48:48;;;;;;;3.53;1.17;;;;;;;23.93;46.47;97880.63;5011419;28;20311;-69
2021/01/03 20:51:15;;;;;;;5.78;1.58;;;;;;;23.87;45.77;97876.00;5010586;28;20286;-70
2021/01/03 20:53:41;;;;;;;5.22;1.45;;;;;;;23.90;45.74;97880.97;5010623;28;20208;-69
2021/01/03 20:56:08;;;;;;;3.15;1.67;;;;;;;23.80;46.16;97885.72;5007804;28;20211;-70
2021/01/03 20:58:35;;;;;;;2.58;1.30;;;;;;;24.00;46.35;97876.19;5008733;28;20224;-70
2021/01/03 21:01:03;;;;;;;3.88;1.27;;;;;;;24.27;46.02;97884.56;5008438;28;20668;-69
2021/01/03 21:03:29;;;;;;;2.47;1.05;;;;;;;24.43;45.34;97885.38;5010692;28;20208;-69
2021/01/03 21:05:55;;;;;;;4.15;1.20;;;;;;;24.39;45.09;97879.56;5010458;28;20597;-70
2021/01/03 21:08:21;;;;;;;2.50;1.60;;;;;;;24.34;45.20;97882.78;5009771;28;20236;-69
2021/01/03 21:10:48;;;;;;;1.70;1.10;;;;;;;24.45;45.13;97886.00;5012200;28;20209;-70
2021/01/03 21:13:14;;;;;;;2.20;1.17;;;;;;;24.48;44.76;97880.28;5011380;28;20287;-70
2021/01/03 21:15:40;;;;;;;3.28;1.40;;;;;;;24.45;44.94;97883.31;5010908;28;20204;-70
2021/01/03 21:18:08;;;;;;;2.53;1.13;;;;;;;24.45;44.99;97884.19;5010496;28;20224;-67
2021/01/03 21:20:34;;;;;;;1.88;1.27;;;;;;;24.52;45.12;97882.41;5008508;28;20212;-70
2021/01/03 21:23:00;;;;;;;1.60;1.20;;;;;;;24.44;44.20;97885.19;5010479;28;20639;-70
2021/01/03 21:25:29;;;;;;;1.92;1.08;;;;;;;24.45;45.09;97884.19;5010210;28;20286;-70
2021/01/03 21:28:16;;;;;;;2.65;1.20;;;;;;;24.50;44.46;97886.28;5009358;28;20599;-70
2021/01/03 21:30:52;;;;;;;1.88;1.23;;;;;;;24.52;44.17;97887.75;5010976;28;20267;-68
2021/01/03 21:33:44;;;;;;;2.08;1.38;;;;;;;24.45;44.42;97889.53;5010812;28;20235;-69
2021/01/03 21:36:28;;;;;;;1.42;1.10;;;;;;;24.50;44.36;97884.44;5010214;28;20208;-70
2021/01/03 21:38:55;;;;;;;2.90;1.00;;;;;;;24.50;44.98;97880.94;5010918;28;20296;-70
2021/01/03 21:41:35;;;;;;;1.30;1.10;;;;;;;24.46;44.43;97888.47;5010898;28;20216;-70
2021/01/03 21:44:39;;;;;;;2.40;0.95;;;;;;;24.49;44.52;97884.63;5010871;28;20224;-70
2021/01/03 21:47:15;;;;;;;1.88;1.02;;;;;;;24.49;44.96;97881.94;5010866;28;20204;-69
2021/01/03 21:49:50;;;;;;;1.27;0.88;;;;;;;24.45;44.59;97878.84;5010652;28;20609;-69
2021/01/03 21:52:21;;;;;;;2.80;1.30;;;;;;;24.45;44.40;97877.97;5010014;28;20204;-70
2021/01/03 21:55:15;;;;;;;1.55;1.20;;;;;;;24.45;45.10;97883.31;5010361;28;20204;-70
2021/01/03 21:58:11;;;;;;;1.05;0.90;;;;;;;24.43;45.13;97888.03;5007982;28;20216;-69
2021/01/03 22:01:02;;;;;;;2.35;1.23;;;;;;;24.51;44.69;97879.91;5010320;28;20204;-69
2021/01/03 22:04:27;;;;;;;2.13;1.00;;;;;;;24.52;44.14;97885.06;5010100;28;20248;-69
2021/01/03 22:07:21;;;;;;;4.35;1.42;;;;;;;24.43;43.27;97886.22;4962544;28;20287;-70
2021/01/03 22:10:09;;;;;;;1.38;1.10;;;;;;;24.36;43.72;97886.13;5009304;28;20233;-70
2021/01/03 22:13:02;;;;;;;4.05;0.98;;;;;;;24.29;43.54;97889.72;5009917;28;20216;-70
2021/01/03 22:15:34;;;;;;;3.67;1.33;;;;;;;24.18;43.09;97882.97;5003945;28;20243;-70
2021/01/03 22:18:16;;;;;;;1.48;1.13;;;;;;;24.18;44.25;97877.66;5009453;28;20246;-70
2021/01/03 22:20:53;;;;;;;2.42;1.20;;;;;;;24.13;43.59;97886.22;5010717;28;20240;-70
2021/01/03 22:23:58;;;;;;;1.95;1.25;;;;;;;23.91;44.49;97882.63;5011704;28;20248;-70
2021/01/03 22:26:28;;;;;;;3.50;1.58;;;;;;;23.79;44.60;97884.06;5011452;28;20208;-71
2021/01/03 22:29:16;;;;;;;2.58;1.35;;;;;;;23.61;44.41;97877.22;5010021;28;20307;-68
2021/01/03 22:31:58;;;;;;;3.25;1.52;;;;;;;23.52;45.11;97870.31;5010742;28;20735;-69
2021/01/03 22:35:03;;;;;;;2.47;1.08;;;;;;;23.49;45.57;97888.53;5011126;28;20583;-69
2021/01/03 22:37:50;;;;;;;17.08;2.00;;;;;;;23.70;45.06;97874.47;5000232;28;20664;-71
2021/01/03 22:40:34;;;;;;;15.43;1.80;;;;;;;23.80;45.66;97885.72;5010730;28;20212;-63
2021/01/03 22:43:29;;;;;;;3.03;1.10;;;;;;;23.91;45.61;97887.13;5009740;28;20211;-62
2021/01/03 22:46:30;;;;;;;8.05;1.80;;;;;;;23.94;46.11;97879.59;5010650;28;20304;-63
2021/01/03 22:49:15;;;;;;;7.78;1.40;;;;;;;23.91;45.92;97876.47;5009128;28;20323;-63
2021/01/03 22:51:58;;;;;;;7.72;1.40;;;;;;;23.82;45.65;97873.88;5010479;28;20222;-63
2021/01/03 22:54:34;;;;;;;5.28;1.73;;;;;;;23.78;45.07;97871.72;5010697;28;20205;-63
2021/01/03 22:57:12;;;;;;;12.13;1.98;;;;;;;23.81;45.18;97871.34;5014019;28;20201;-64
2021/01/03 23:00:07;;;;;;;6.47;1.75;;;;;;;23.77;44.60;97870.06;5013439;28;20385;-64
2021/01/03 23:02:46;;;;;;;8.25;1.80;;;;;;;23.71;44.86;97868.13;5013928;28;20235;-63
2021/01/03 23:05:18;;;;;;;5.68;1.65;;;;;;;23.72;45.26;97865.28;5013316;28;20271;-63
2021/01/03 23:07:50;;;;;;;16.15;2.03;;;;;;;23.73;45.73;97868.78;5013922;28;20211;-63
2021/01/03 23:10:20;;;;;;;7.88;1.95;;;;;;;23.80;44.87;97865.19;5013159;28;20201;-63
2021/01/03 23:12:52;;;;;;;7.53;1.65;;;;;;;23.79;45.61;97868.88;5012757;28;20200;-63
2021/01/03 23:15:22;;;;;;;7.90;1.50;;;;;;;23.79;44.83;97865.38;5012795;28;20295;-63
2021/01/03 23:17:55;;;;;;;5.90;1.58;;;;;;;23.76;45.16;97865.75;5012698;28;20207;-63
2021/01/03 23:20:27;;;;;;;5.88;1.65;;;;;;;23.72;44.75;97869.78;5012730;28;20292;-63
2021/01/03 23:22:57;;;;;;;6.18;1.48;;;;;;;23.69;45.37;97862.16;5014184;28;20303;-63
2021/01/03 23:25:30;;;;;;;5.75;1.60;;;;;;;23.62;44.97;97868.22;5013313;28;20200;-63
2021/01/03 23:28:05;;;;;;;4.70;1.70;;;;;;;23.58;45.59;97866.94;5012331;28;20255;-63
2021/01/03 23:30:32;;;;;;;5.70;1.45;;;;;;;23.56;45.96;97863.59;5013189;28;20329;-63
2021/01/03 23:33:00;;;;;;;6.13;1.40;;;;;;;23.57;46.09;97864.44;5012375;28;20240;-63
2021/01/03 23:35:26;;;;;;;4.72;1.30;;;;;;;23.60;45.93;97859.56;5010850;28;20575;-63
2021/01/03 23:38:29;;;;;;;2.50;1.20;;;;;;;23.58;45.66;97860.75;5011388;28;20209;-64
2021/01/03 23:40:58;;;;;;;5.50;1.23;;;;;;;23.57;46.09;97865.25;5012445;28;20646;-62
2021/01/03 23:43:40;;;;;;;4.68;1.20;;;;;;;23.54;45.45;97867.47;5013434;28;20240;-60
2021/01/03 23:46:13;;;;;;;2.85;1.45;;;;;;;23.52;45.71;97870.31;5013200;28;20648;-62
2021/01/03 23:48:48;;;;;;;3.90;1.65;;;;;;;23.51;45.43;97859.81;5012998;28;20239;-62
2021/01/03 23:51:21;;;;;;;3.05;1.38;;;;;;;23.45;45.00;97861.38;5012442;28;20266;-62
2021/01/03 23:54:22;;;;;;;6.10;1.60;;;;;;;23.45;44.92;97861.38;5013640;28;20315;-62
2021/01/03 23:57:25;;;;;;;7.35;1.73;;;;;;;23.41;45.77;97854.72;5012520;28;20208;-62
